createdAt,value
2023-04-23T00:00:54.911Z,11.50
2023-04-23T00:03:25.513Z,11.50
2023-04-23T00:05:57.958Z,11.50
2023-04-23T00:08:28.489Z,11.50
2023-04-23T00:10:58.772Z,11.50
2023-04-23T00:13:28.489Z,11.50
2023-04-23T00:16:01.360Z,11.50
2023-04-23T00:18:31.433Z,11.50
2023-04-23T00:21:00.577Z,11.50
2023-04-23T00:23:30.770Z,11.50
2023-04-23T00:25:59.947Z,11.50
2023-04-23T00:28:29.850Z,11.50
2023-04-23T00:31:03.095Z,11.40
2023-04-23T00:33:33.288Z,11.50
2023-04-23T00:36:04.045Z,11.40
2023-04-23T00:38:32.813Z,11.40
2023-04-23T00:41:03.476Z,11.40
2023-04-23T00:43:33.722Z,11.30
2023-04-23T00:46:06.872Z,11.30
2023-04-23T00:48:40.041Z,11.20
2023-04-23T00:51:08.656Z,11.20
2023-04-23T00:53:38.243Z,11.20
2023-04-23T00:56:10.011Z,11.20
2023-04-23T00:58:40.104Z,11.10
2023-04-23T01:01:10.893Z,11.10
2023-04-23T01:03:42.402Z,11.10
2023-04-23T01:06:11.357Z,11.00
2023-04-23T01:08:40.348Z,11.00
2023-04-23T01:11:09.322Z,11.00
2023-04-23T01:13:38.388Z,11.00
2023-04-23T01:16:11.677Z,11.00
2023-04-23T01:18:41.741Z,11.00
2023-04-23T01:21:13.542Z,11.00
2023-04-23T01:23:43.443Z,11.00
2023-04-23T01:26:12.085Z,10.90
2023-04-23T01:28:41.420Z,10.90
2023-04-23T01:31:11.161Z,10.90
2023-04-23T01:33:39.856Z,10.90
2023-04-23T01:36:11.728Z,10.80
2023-04-23T01:38:42.446Z,10.80
2023-04-23T01:41:11.599Z,10.80
2023-04-23T01:43:41.356Z,10.80
2023-04-23T01:46:11.935Z,10.80
2023-04-23T01:48:41.084Z,10.80
2023-04-23T01:51:10.922Z,10.80
2023-04-23T01:53:39.796Z,10.80
2023-04-23T01:56:11.341Z,10.80
2023-04-23T01:58:39.818Z,10.90
2023-04-23T02:01:08.330Z,10.90
2023-04-23T02:03:38.428Z,10.90
2023-04-23T02:06:07.574Z,10.90
2023-04-23T02:08:38.489Z,11.00
2023-04-23T02:11:07.991Z,11.00
2023-04-23T02:13:39.319Z,11.00
2023-04-23T02:16:09.206Z,11.00
2023-04-23T02:18:38.019Z,11.00
2023-04-23T02:21:07.110Z,11.00
2023-04-23T02:23:36.113Z,11.00
2023-04-23T02:26:05.158Z,11.00
2023-04-23T02:28:34.048Z,11.00
2023-04-23T02:31:04.367Z,11.00
2023-04-23T02:33:33.562Z,11.00
2023-04-23T02:36:02.462Z,11.00
2023-04-23T02:38:31.393Z,11.00
2023-04-23T02:40:59.792Z,11.00
2023-04-23T02:43:28.369Z,11.10
2023-04-23T02:45:57.149Z,11.10
2023-04-23T02:48:27.466Z,11.00
2023-04-23T02:50:56.248Z,11.00
2023-04-23T02:53:27.430Z,11.00
2023-04-23T02:55:56.491Z,11.00
2023-04-23T02:58:25.103Z,11.10
2023-04-23T03:00:56.602Z,11.10
2023-04-23T03:03:32.196Z,11.10
2023-04-23T03:06:03.494Z,11.10
2023-04-23T03:08:32.830Z,11.10
2023-04-23T03:11:03.356Z,11.10
2023-04-23T03:13:34.090Z,11.10
2023-04-23T03:16:03.077Z,11.10
2023-04-23T03:18:33.028Z,11.10
2023-04-23T03:21:01.894Z,11.10
2023-04-23T03:23:31.533Z,11.10
2023-04-23T03:25:59.858Z,11.10
2023-04-23T03:28:28.695Z,11.10
2023-04-23T03:30:57.283Z,11.00
2023-04-23T03:33:26.476Z,11.00
2023-04-23T03:35:56.770Z,11.00
2023-04-23T03:38:31.396Z,11.00
2023-04-23T03:41:02.044Z,11.10
2023-04-23T03:43:31.251Z,11.00
2023-04-23T03:46:06.900Z,11.10
2023-04-23T03:48:39.999Z,11.10
2023-04-23T03:51:15.420Z,11.10
2023-04-23T03:53:46.158Z,11.10
2023-04-23T03:56:47.275Z,11.10
2023-04-23T03:59:30.943Z,11.00
2023-04-23T04:02:04.686Z,11.00
2023-04-23T04:04:34.324Z,11.00
2023-04-23T04:07:06.177Z,11.00
2023-04-23T04:09:34.562Z,11.00
2023-04-23T04:12:04.216Z,11.00
2023-04-23T04:14:33.634Z,11.00
2023-04-23T04:17:02.393Z,11.00
2023-04-23T04:19:30.973Z,11.00
2023-04-23T04:21:59.788Z,11.00
2023-04-23T04:24:32.618Z,11.00
2023-04-23T04:27:01.728Z,11.10
2023-04-23T04:29:31.189Z,11.00
2023-04-23T04:31:59.996Z,11.00
2023-04-23T04:34:30.208Z,11.10
2023-04-23T04:36:59.544Z,11.10
2023-04-23T04:39:31.172Z,11.10
2023-04-23T04:42:00.245Z,11.10
2023-04-23T04:44:28.643Z,11.00
2023-04-23T04:46:57.293Z,11.10
2023-04-23T04:49:26.596Z,11.10
2023-04-23T04:51:57.737Z,11.10
2023-04-23T04:54:26.640Z,11.10
2023-04-23T04:56:57.362Z,11.10
2023-04-23T04:59:27.080Z,11.10
2023-04-23T05:01:55.510Z,11.10
2023-04-23T05:04:24.041Z,11.10
2023-04-23T05:06:53.078Z,11.10
2023-04-23T05:09:22.265Z,11.10
2023-04-23T05:11:52.552Z,11.10
2023-04-23T05:14:22.655Z,11.10
2023-04-23T05:16:51.373Z,11.10
2023-04-23T05:19:20.322Z,11.10
2023-04-23T05:21:49.379Z,11.10
2023-04-23T05:24:17.980Z,11.10
2023-04-23T05:26:48.959Z,11.10
2023-04-23T05:29:21.379Z,11.10
2023-04-23T05:31:50.304Z,11.10
2023-04-23T05:34:19.601Z,11.20
2023-04-23T05:36:49.586Z,11.20
2023-04-23T05:39:18.026Z,11.20
2023-04-23T05:41:47.759Z,11.10
2023-04-23T05:44:16.136Z,11.10
2023-04-23T05:46:51.488Z,11.20
2023-04-23T05:49:19.700Z,11.20
2023-04-23T05:51:48.332Z,11.20
2023-04-23T05:54:18.848Z,11.10
2023-04-23T05:56:47.550Z,11.20
2023-04-23T05:59:16.229Z,11.20
2023-04-23T06:01:48.489Z,11.20
2023-04-23T06:04:18.550Z,11.20
2023-04-23T06:06:47.865Z,11.30
2023-04-23T06:09:16.614Z,11.30
2023-04-23T06:11:45.191Z,11.40
2023-04-23T06:14:13.797Z,11.40
2023-04-23T06:16:42.581Z,11.50
2023-04-23T06:19:12.954Z,11.50
2023-04-23T06:21:41.466Z,11.50
2023-04-23T06:24:11.335Z,11.50
2023-04-23T06:26:40.054Z,11.50
2023-04-23T06:29:15.326Z,11.60
2023-04-23T06:31:57.299Z,11.60
2023-04-23T06:34:27.369Z,11.50
2023-04-23T06:36:55.930Z,11.50
2023-04-23T06:39:24.866Z,11.50
2023-04-23T06:41:53.501Z,11.50
2023-04-23T06:44:49.179Z,11.50
2023-04-23T06:47:18.883Z,11.60
2023-04-23T06:49:49.035Z,11.60
2023-04-23T06:52:18.906Z,11.60
2023-04-23T06:54:48.264Z,11.70
2023-04-23T06:57:16.965Z,11.80
2023-04-23T06:59:45.676Z,11.80
2023-04-23T07:02:16.279Z,11.90
2023-04-23T07:04:45.393Z,12.00
2023-04-23T07:07:17.220Z,12.00
2023-04-23T07:09:46.498Z,12.00
2023-04-23T07:12:17.879Z,12.00
2023-04-23T07:14:46.323Z,12.00
2023-04-23T07:17:15.015Z,12.10
2023-04-23T07:19:45.731Z,12.10
2023-04-23T07:22:16.335Z,12.10
2023-04-23T07:24:45.262Z,12.10
2023-04-23T07:27:16.077Z,12.10
2023-04-23T07:29:45.760Z,12.20
2023-04-23T07:32:14.678Z,12.30
2023-04-23T07:34:46.262Z,12.30
2023-04-23T07:37:16.798Z,12.20
2023-04-23T07:39:45.404Z,12.20
2023-04-23T07:42:15.202Z,12.30
2023-04-23T07:44:44.366Z,12.30
2023-04-23T07:47:12.875Z,12.30
2023-04-23T07:49:41.586Z,12.30
2023-04-23T07:52:11.265Z,12.30
2023-04-23T07:54:41.195Z,12.40
2023-04-23T07:57:10.542Z,12.40
2023-04-23T07:59:40.248Z,12.50
2023-04-23T08:02:09.590Z,12.60
2023-04-23T08:04:38.584Z,12.60
2023-04-23T08:07:07.481Z,12.60
2023-04-23T08:09:36.019Z,12.50
2023-04-23T08:12:07.670Z,12.40
2023-04-23T08:14:36.213Z,12.40
2023-04-23T08:17:09.725Z,12.40
2023-04-23T08:19:39.296Z,12.40
2023-04-23T08:22:08.508Z,12.50
2023-04-23T08:24:36.871Z,12.40
2023-04-23T08:27:07.653Z,12.40
2023-04-23T08:29:36.720Z,12.40
2023-04-23T08:32:05.996Z,12.50
2023-04-23T08:34:35.940Z,12.60
2023-04-23T08:37:04.675Z,12.60
2023-04-23T08:39:36.814Z,12.60
2023-04-23T08:42:13.302Z,12.80
2023-04-23T08:44:44.150Z,12.90
2023-04-23T08:47:13.992Z,13.00
2023-04-23T08:49:45.371Z,13.10
2023-04-23T08:52:19.009Z,13.30
2023-04-23T08:54:50.984Z,13.30
2023-04-23T08:57:23.193Z,13.50
2023-04-23T08:59:52.316Z,13.60
2023-04-23T09:02:22.133Z,13.60
2023-04-23T09:04:54.851Z,13.60
2023-04-23T09:07:25.507Z,13.60
2023-04-23T09:09:55.123Z,13.70
2023-04-23T09:12:25.705Z,13.80
2023-04-23T09:14:54.938Z,13.90
2023-04-23T09:17:25.695Z,13.90
2023-04-23T09:19:56.450Z,14.00
2023-04-23T09:22:44.476Z,14.00
2023-04-23T09:25:18.072Z,14.10
2023-04-23T09:27:51.054Z,14.10
2023-04-23T09:30:20.230Z,14.20
2023-04-23T09:32:49.802Z,14.20
2023-04-23T09:35:20.925Z,14.20
2023-04-23T09:37:54.855Z,14.20
2023-04-23T09:40:25.619Z,14.30
2023-04-23T09:42:56.115Z,14.20
2023-04-23T09:45:27.172Z,14.10
2023-04-23T09:47:57.946Z,14.20
2023-04-23T09:50:36.728Z,14.30
2023-04-23T09:53:05.086Z,14.40
2023-04-23T09:55:38.684Z,14.60
2023-04-23T09:58:16.178Z,14.90
2023-04-23T10:00:45.944Z,15.10
2023-04-23T10:03:17.074Z,15.20
2023-04-23T10:06:00.373Z,15.30
2023-04-23T10:08:30.803Z,15.00
2023-04-23T10:11:10.118Z,14.90
2023-04-23T10:13:49.310Z,15.00
2023-04-23T10:16:24.333Z,15.00
2023-04-23T10:19:01.698Z,15.10
2023-04-23T10:21:42.870Z,15.20
2023-04-23T10:24:24.927Z,15.30
2023-04-23T10:26:58.320Z,15.30
2023-04-23T10:29:31.543Z,15.30
2023-04-23T10:32:03.078Z,15.40
2023-04-23T10:34:33.569Z,15.40
2023-04-23T10:37:04.178Z,15.30
2023-04-23T10:39:35.224Z,15.30
2023-04-23T10:42:06.273Z,15.40
2023-04-23T10:47:16.380Z,15.70
2023-04-23T10:49:45.382Z,15.80
2023-04-23T10:52:19.612Z,15.90
2023-04-23T10:54:54.608Z,15.70
2023-04-23T10:57:23.259Z,15.70
2023-04-23T10:59:59.026Z,15.70
2023-04-23T11:02:44.076Z,15.70
2023-04-23T11:05:12.625Z,15.70
2023-04-23T11:07:41.072Z,15.30
2023-04-23T11:10:14.438Z,15.40
2023-04-23T11:12:43.478Z,15.60
2023-04-23T11:15:15.433Z,15.70
2023-04-23T11:18:05.905Z,16.10
2023-04-23T11:20:36.930Z,16.10
2023-04-23T11:23:08.116Z,16.10
2023-04-23T11:25:39.595Z,15.70
2023-04-23T11:28:10.171Z,15.80
2023-04-23T11:30:41.518Z,15.90
2023-04-23T11:33:10.337Z,15.80
2023-04-23T11:35:40.842Z,15.90
2023-04-23T11:38:13.309Z,16.10
2023-04-23T11:40:43.023Z,16.10
2023-04-23T11:43:11.188Z,16.20
2023-04-23T11:45:41.154Z,16.40
2023-04-23T11:48:09.609Z,16.50
2023-04-23T11:50:39.029Z,16.40
2023-04-23T11:53:09.832Z,16.50
2023-04-23T11:55:44.433Z,16.60
2023-04-23T11:58:14.960Z,16.90
2023-04-23T12:00:47.087Z,16.80
2023-04-23T12:03:16.452Z,16.50
2023-04-23T12:05:47.072Z,16.70
2023-04-23T12:08:18.562Z,16.90
2023-04-23T12:10:52.441Z,16.80
2023-04-23T12:13:23.403Z,17.00
2023-04-23T12:15:56.667Z,17.10
2023-04-23T12:18:32.320Z,17.10
2023-04-23T12:21:10.137Z,17.10
2023-04-23T12:23:39.374Z,17.00
2023-04-23T12:26:12.750Z,17.00
2023-04-23T12:28:48.142Z,17.00
2023-04-23T12:31:22.708Z,17.00
2023-04-23T12:34:00.898Z,17.00
2023-04-23T12:36:31.695Z,17.10
2023-04-23T12:39:22.997Z,17.00
2023-04-23T12:41:53.205Z,17.00
2023-04-23T12:44:22.426Z,17.00
2023-04-23T12:47:08.508Z,17.10
2023-04-23T12:49:40.417Z,16.90
2023-04-23T12:52:11.427Z,16.90
2023-04-23T12:54:44.733Z,17.10
2023-04-23T12:57:15.835Z,17.20
2023-04-23T12:59:44.468Z,17.20
2023-04-23T13:02:15.031Z,17.10
2023-04-23T13:04:43.474Z,16.80
2023-04-23T13:07:12.041Z,16.70
2023-04-23T13:09:42.242Z,16.80
2023-04-23T13:12:12.165Z,16.90
2023-04-23T13:14:40.922Z,16.90
2023-04-23T13:17:10.374Z,16.90
2023-04-23T13:19:40.952Z,16.80
2023-04-23T13:22:09.705Z,16.80
2023-04-23T13:24:39.175Z,16.70
2023-04-23T13:27:08.686Z,16.50
2023-04-23T13:29:40.583Z,16.50
2023-04-23T13:32:09.643Z,16.40
2023-04-23T13:34:39.915Z,16.40
2023-04-23T13:37:09.361Z,16.50
2023-04-23T13:39:40.709Z,16.40
2023-04-23T13:42:10.609Z,16.40
2023-04-23T13:44:40.088Z,16.40
2023-04-23T13:47:09.127Z,16.30
2023-04-23T13:49:40.162Z,16.20
2023-04-23T13:52:11.395Z,16.10
2023-04-23T13:54:40.686Z,16.10
2023-04-23T13:57:09.472Z,16.10
2023-04-23T13:59:37.739Z,15.90
2023-04-23T14:02:06.347Z,15.90
2023-04-23T14:04:35.092Z,15.70
2023-04-23T14:07:05.876Z,15.50
2023-04-23T14:09:36.863Z,15.40
2023-04-23T14:12:06.170Z,15.30
2023-04-23T14:14:34.706Z,14.80
2023-04-23T14:17:03.658Z,14.30
2023-04-23T14:19:34.562Z,13.70
2023-04-23T14:22:04.798Z,13.30
2023-04-23T14:24:36.401Z,13.20
2023-04-23T14:27:05.878Z,13.10
2023-04-23T14:29:42.838Z,13.20
2023-04-23T14:32:11.578Z,13.30
2023-04-23T14:34:41.394Z,13.40
2023-04-23T14:37:12.513Z,13.50
2023-04-23T14:39:42.578Z,13.50
2023-04-23T14:42:11.406Z,13.60
2023-04-23T14:44:39.928Z,13.50
2023-04-23T14:47:12.064Z,13.40
2023-04-23T14:49:42.241Z,13.50
2023-04-23T14:52:12.243Z,13.40
2023-04-23T14:54:40.611Z,13.40
2023-04-23T14:57:08.961Z,13.40
2023-04-23T14:59:37.367Z,13.40
2023-04-23T15:02:07.167Z,13.40
2023-04-23T15:04:36.834Z,13.40
2023-04-23T15:07:05.704Z,13.40
2023-04-23T15:09:35.878Z,13.40
2023-04-23T15:12:18.482Z,13.40
2023-04-23T15:14:49.103Z,13.20
2023-04-23T15:17:19.236Z,13.10
2023-04-23T15:19:47.771Z,13.00
2023-04-23T15:22:17.889Z,12.80
2023-04-23T15:24:47.617Z,12.90
2023-04-23T15:27:16.776Z,12.80
2023-04-23T15:29:47.313Z,12.80
2023-04-23T15:32:18.350Z,12.80
2023-04-23T15:34:47.728Z,12.70
2023-04-23T15:37:16.664Z,12.70
2023-04-23T15:39:47.493Z,12.70
2023-04-23T15:42:18.767Z,12.70
2023-04-23T15:44:50.532Z,12.70
2023-04-23T15:47:22.144Z,12.60
2023-04-23T15:49:51.142Z,12.70
2023-04-23T15:52:19.841Z,12.70
2023-04-23T15:54:48.834Z,12.70
2023-04-23T15:57:18.704Z,12.70
2023-04-23T15:59:47.729Z,12.70
2023-04-23T16:02:17.174Z,12.80
2023-04-23T16:04:46.366Z,12.90
2023-04-23T16:07:15.729Z,13.00
2023-04-23T16:09:44.318Z,13.10
2023-04-23T16:12:13.733Z,13.10
2023-04-23T16:14:43.853Z,13.20
2023-04-23T16:17:13.160Z,13.20
2023-04-23T16:19:41.847Z,13.20
2023-04-23T16:22:10.942Z,13.20
2023-04-23T16:24:39.741Z,13.20
2023-04-23T16:27:11.029Z,13.10
2023-04-23T16:29:39.978Z,13.10
2023-04-23T16:32:10.289Z,13.10
2023-04-23T16:34:38.520Z,13.10
2023-04-23T16:37:07.847Z,13.00
2023-04-23T16:39:36.197Z,13.10
2023-04-23T16:42:04.780Z,13.00
2023-04-23T16:44:33.978Z,13.00
2023-04-23T16:47:02.404Z,13.00
2023-04-23T16:49:32.697Z,12.90
2023-04-23T16:52:01.740Z,13.00
2023-04-23T16:54:31.051Z,13.00
2023-04-23T16:57:00.826Z,13.00
2023-04-23T16:59:30.032Z,13.00
2023-04-23T17:01:58.727Z,13.10
2023-04-23T17:04:27.492Z,13.10
2023-04-23T17:06:58.684Z,13.10
2023-04-23T17:09:27.458Z,13.10
2023-04-23T17:11:56.787Z,13.10
2023-04-23T17:14:26.029Z,13.20
2023-04-23T17:16:54.843Z,13.30
2023-04-23T17:19:23.631Z,13.30
2023-04-23T17:21:53.021Z,13.20
2023-04-23T17:24:23.963Z,13.30
2023-04-23T17:26:52.636Z,13.20
2023-04-23T17:29:21.694Z,13.20
2023-04-23T17:31:52.414Z,13.10
2023-04-23T17:34:22.791Z,13.10
2023-04-23T17:36:51.168Z,13.10
2023-04-23T17:39:23.777Z,13.00
2023-04-23T17:41:52.480Z,12.90
2023-04-23T17:44:21.043Z,12.90
2023-04-23T17:46:51.876Z,12.90
2023-04-23T17:49:20.342Z,12.90
2023-04-23T17:51:49.209Z,12.90
2023-04-23T17:54:18.105Z,12.80
2023-04-23T17:56:48.105Z,12.80
2023-04-23T17:59:17.216Z,12.80
2023-04-23T18:01:48.102Z,12.90
2023-04-23T18:04:17.804Z,12.90
2023-04-23T18:06:46.944Z,12.90
2023-04-23T18:09:15.663Z,12.90
2023-04-23T18:11:44.909Z,12.90
2023-04-23T18:14:15.532Z,12.90
2023-04-23T18:16:43.981Z,12.80
2023-04-23T18:19:12.525Z,12.80
2023-04-23T18:21:45.225Z,12.70
2023-04-23T18:24:15.134Z,12.70
2023-04-23T18:26:43.671Z,12.70
2023-04-23T18:29:12.455Z,12.70
2023-04-23T18:31:42.478Z,12.70
2023-04-23T18:34:15.123Z,12.60
2023-04-23T18:36:44.794Z,12.60
2023-04-23T18:39:13.528Z,12.50
2023-04-23T18:41:41.922Z,12.50
2023-04-23T18:44:13.018Z,12.40
2023-04-23T18:46:44.012Z,12.40
2023-04-23T18:49:47.292Z,12.40
2023-04-23T18:52:20.967Z,12.40
2023-04-23T18:54:50.124Z,12.40
2023-04-23T18:57:18.784Z,12.20
2023-04-23T18:59:47.865Z,12.20
2023-04-23T19:02:28.610Z,12.20
2023-04-23T19:05:03.715Z,12.20
2023-04-23T19:07:37.313Z,12.20
2023-04-23T19:10:06.695Z,12.20
2023-04-23T19:12:35.913Z,12.10
2023-04-23T19:15:04.816Z,12.10
2023-04-23T19:17:35.688Z,12.10
2023-04-23T19:20:04.813Z,12.10
2023-04-23T19:22:33.590Z,12.10
2023-04-23T19:25:02.358Z,12.10
2023-04-23T19:27:31.224Z,12.00
2023-04-23T19:30:01.016Z,12.00
2023-04-23T19:32:29.872Z,12.00
2023-04-23T19:35:01.332Z,12.00
2023-04-23T19:37:30.312Z,12.00
2023-04-23T19:39:58.744Z,12.00
2023-04-23T19:42:29.987Z,12.00
2023-04-23T19:44:58.980Z,12.00
2023-04-23T19:47:27.718Z,12.00
2023-04-23T19:49:56.898Z,12.00
2023-04-23T19:52:28.615Z,12.10
2023-04-23T19:54:57.373Z,12.10
2023-04-23T19:57:29.388Z,12.10
2023-04-23T19:59:59.287Z,12.10
2023-04-23T20:02:29.420Z,12.10
2023-04-23T20:04:58.804Z,12.10
2023-04-23T20:07:29.384Z,12.10
2023-04-23T20:09:57.793Z,12.10
2023-04-23T20:12:26.618Z,12.00
2023-04-23T20:14:56.081Z,12.00
2023-04-23T20:17:26.580Z,11.90
2023-04-23T20:19:57.651Z,11.80
2023-04-23T20:22:26.010Z,11.70
2023-04-23T20:24:56.658Z,11.70
2023-04-23T20:27:26.247Z,11.60
2023-04-23T20:29:55.032Z,11.50
2023-04-23T20:32:25.077Z,11.40
2023-04-23T20:34:54.371Z,11.40
2023-04-23T20:37:27.128Z,11.50
2023-04-23T20:39:58.385Z,11.50
2023-04-23T20:42:29.274Z,11.50
2023-04-23T20:44:58.599Z,11.40
2023-04-23T20:47:28.834Z,11.50
2023-04-23T20:49:57.364Z,11.40
2023-04-23T20:52:28.477Z,11.30
2023-04-23T20:54:58.536Z,11.20
2023-04-23T20:57:27.704Z,11.20
2023-04-23T20:59:56.101Z,11.10
2023-04-23T21:02:25.343Z,11.20
2023-04-23T21:04:55.041Z,11.20
2023-04-23T21:07:23.875Z,11.10
2023-04-23T21:09:52.165Z,11.20
2023-04-23T21:12:22.710Z,11.20
2023-04-23T21:14:51.192Z,11.10
2023-04-23T21:17:20.604Z,11.10
2023-04-23T21:19:50.130Z,11.00
2023-04-23T21:22:19.062Z,10.90
2023-04-23T21:24:48.698Z,10.90
2023-04-23T21:27:21.670Z,10.90
2023-04-23T21:29:52.528Z,10.80
2023-04-23T21:32:21.448Z,10.80
2023-04-23T21:34:51.444Z,10.80
2023-04-23T21:37:20.231Z,10.90
2023-04-23T21:39:48.363Z,10.90
2023-04-23T21:42:18.333Z,10.90
2023-04-23T21:44:47.705Z,10.80
2023-04-23T21:47:18.433Z,10.80
2023-04-23T21:49:46.817Z,10.80
2023-04-23T21:52:17.409Z,10.80
2023-04-23T21:54:46.973Z,10.80
2023-04-23T21:57:19.400Z,10.70
2023-04-23T21:59:48.014Z,10.70
2023-04-23T22:02:18.458Z,10.70
2023-04-23T22:04:48.473Z,10.40
2023-04-23T22:07:18.172Z,10.40
2023-04-23T22:09:47.910Z,10.30
2023-04-23T22:12:16.994Z,10.30
2023-04-23T22:14:48.018Z,10.20
2023-04-23T22:17:20.205Z,10.10
2023-04-23T22:19:51.052Z,10.10
2023-04-23T22:22:19.727Z,10.00
2023-04-23T22:24:48.886Z,10.00
2023-04-23T22:27:18.800Z,9.90
2023-04-23T22:29:47.606Z,9.90
2023-04-23T22:32:18.245Z,9.90
2023-04-23T22:34:46.858Z,9.90
2023-04-23T22:37:15.778Z,9.80
2023-04-23T22:39:46.632Z,9.70
2023-04-23T22:42:16.110Z,9.70
2023-04-23T22:44:46.164Z,9.70
2023-04-23T22:47:14.848Z,9.70
2023-04-23T22:49:45.142Z,9.70
2023-04-23T22:52:16.041Z,9.70
2023-04-23T22:54:44.820Z,9.70
2023-04-23T22:57:13.354Z,9.70
2023-04-23T22:59:42.721Z,9.70
2023-04-23T23:02:12.403Z,9.60
2023-04-23T23:04:41.600Z,9.70
2023-04-23T23:07:12.054Z,9.70
2023-04-23T23:09:40.552Z,9.70
2023-04-23T23:12:09.389Z,9.70
2023-04-23T23:14:38.379Z,9.70
2023-04-23T23:17:07.328Z,9.70
2023-04-23T23:19:36.076Z,9.70
2023-04-23T23:22:04.695Z,9.80
2023-04-23T23:24:34.712Z,9.80
2023-04-23T23:27:05.535Z,9.80
2023-04-23T23:29:34.195Z,9.80
2023-04-23T23:32:04.811Z,9.80
2023-04-23T23:34:33.397Z,9.80
2023-04-23T23:37:01.782Z,9.80
2023-04-23T23:39:30.826Z,9.80
2023-04-23T23:42:02.477Z,9.80
2023-04-23T23:44:31.473Z,9.80
2023-04-23T23:47:01.007Z,9.80
2023-04-23T23:49:30.485Z,9.80
2023-04-23T23:51:59.169Z,9.80
2023-04-23T23:54:29.320Z,9.70
2023-04-23T23:56:58.336Z,9.70
2023-04-23T23:59:29.272Z,9.70
